createdAt,value
2022-12-05T00:02:12.621Z,23.33
2022-12-05T00:04:44.170Z,24.17
2022-12-05T00:07:14.271Z,25.57
2022-12-05T00:09:44.382Z,24.10
2022-12-05T00:12:14.405Z,24.87
2022-12-05T00:14:44.643Z,23.73
2022-12-05T00:17:14.683Z,24.13
2022-12-05T00:19:44.659Z,24.40
2022-12-05T00:22:14.632Z,23.23
2022-12-05T00:24:44.598Z,22.90
2022-12-05T00:27:12.512Z,21.93
2022-12-05T00:29:42.419Z,23.43
2022-12-05T00:32:10.397Z,21.80
2022-12-05T00:34:39.405Z,23.83
2022-12-05T00:37:07.310Z,23.60
2022-12-05T00:39:37.557Z,21.83
2022-12-05T00:42:04.678Z,21.10
2022-12-05T00:44:34.697Z,19.73
2022-12-05T00:47:04.701Z,21.60
2022-12-05T00:49:34.719Z,21.60
2022-12-05T00:52:01.636Z,19.10
2022-12-05T00:54:28.882Z,20.53
2022-12-05T00:56:58.813Z,20.77
2022-12-05T00:59:26.726Z,20.53
2022-12-05T01:01:54.754Z,20.60
2022-12-05T01:04:26.321Z,20.07
2022-12-05T01:06:59.678Z,19.53
2022-12-05T01:09:29.845Z,20.47
2022-12-05T01:11:58.078Z,17.83
2022-12-05T01:14:26.415Z,18.57
2022-12-05T01:16:57.503Z,18.90
2022-12-05T01:19:29.431Z,17.43
2022-12-05T01:21:58.171Z,17.90
2022-12-05T01:24:30.055Z,16.33
2022-12-05T01:26:58.274Z,17.40
2022-12-05T01:29:25.572Z,17.47
2022-12-05T01:31:53.324Z,17.80
2022-12-05T01:34:25.084Z,17.70
2022-12-05T01:36:52.324Z,16.93
2022-12-05T01:39:22.637Z,15.97
2022-12-05T01:41:52.893Z,15.67
2022-12-05T01:44:22.931Z,15.40
2022-12-05T01:46:55.087Z,15.90
2022-12-05T01:49:27.219Z,16.80
2022-12-05T01:52:09.498Z,17.00
2022-12-05T01:54:39.887Z,17.67
2022-12-05T01:57:11.932Z,17.97
2022-12-05T01:59:41.759Z,17.23
2022-12-05T02:02:10.761Z,17.13
2022-12-05T02:04:56.473Z,18.77
2022-12-05T02:07:25.666Z,18.50
2022-12-05T02:09:53.633Z,18.10
2022-12-05T02:12:22.647Z,17.67
2022-12-05T02:15:07.692Z,17.37
2022-12-05T02:17:49.492Z,19.83
2022-12-05T02:20:40.882Z,17.23
2022-12-05T02:23:10.819Z,17.17
2022-12-05T02:25:50.857Z,17.43
2022-12-05T02:28:29.610Z,17.77
2022-12-05T02:31:31.438Z,18.67
2022-12-05T02:34:07.522Z,18.50
2022-12-05T02:36:55.536Z,18.73
2022-12-05T02:39:49.495Z,17.33
2022-12-05T02:42:29.184Z,19.10
2022-12-05T02:45:24.702Z,18.33
2022-12-05T02:47:56.314Z,19.40
2022-12-05T02:50:30.160Z,17.60
2022-12-05T02:53:11.838Z,17.57
2022-12-05T02:55:46.580Z,17.43
2022-12-05T02:58:22.009Z,18.30
2022-12-05T03:00:55.790Z,18.03
2022-12-05T03:03:26.933Z,16.93
2022-12-05T03:06:05.577Z,17.67
2022-12-05T03:08:58.075Z,17.47
2022-12-05T03:11:29.024Z,18.23
2022-12-05T03:14:00.103Z,19.47
2022-12-05T03:16:49.098Z,17.90
2022-12-05T03:19:29.290Z,18.50
2022-12-05T03:22:38.258Z,19.27
2022-12-05T03:25:05.379Z,18.43
2022-12-05T03:27:53.997Z,19.00
2022-12-05T03:30:23.927Z,20.33
2022-12-05T03:33:12.331Z,18.30
2022-12-05T03:36:03.514Z,18.60
2022-12-05T03:39:07.922Z,19.63
2022-12-05T03:42:04.332Z,19.70
2022-12-05T03:44:44.408Z,19.10
2022-12-05T03:47:32.684Z,19.43
2022-12-05T03:50:28.399Z,18.03
2022-12-05T03:53:25.469Z,19.03
2022-12-05T03:56:05.308Z,20.27
2022-12-05T03:59:06.471Z,17.97
2022-12-05T04:01:39.568Z,18.33
2022-12-05T04:04:21.613Z,17.50
2022-12-05T04:06:52.071Z,18.90
2022-12-05T04:09:26.790Z,19.50
2022-12-05T04:11:59.862Z,19.77
2022-12-05T04:14:35.120Z,19.00
2022-12-05T04:17:13.699Z,20.00
2022-12-05T04:20:20.681Z,19.90
2022-12-05T04:22:51.478Z,20.87
2022-12-05T04:25:34.847Z,20.20
2022-12-05T04:28:39.389Z,18.90
2022-12-05T04:31:25.714Z,18.33
2022-12-05T04:33:57.602Z,20.20
2022-12-05T04:36:36.941Z,19.70
2022-12-05T04:39:52.021Z,20.23
2022-12-05T04:42:23.671Z,19.57
2022-12-05T04:44:55.046Z,20.20
2022-12-05T04:47:27.125Z,20.70
2022-12-05T04:49:58.882Z,21.53
2022-12-05T04:52:29.127Z,21.47
2022-12-05T04:55:06.140Z,20.30
2022-12-05T04:57:54.967Z,21.87
2022-12-05T05:00:25.291Z,20.33
2022-12-05T05:03:21.309Z,20.67
2022-12-05T05:05:52.660Z,20.87
2022-12-05T05:08:29.078Z,21.40
2022-12-05T05:11:18.977Z,20.30
2022-12-05T05:13:49.057Z,20.67
2022-12-05T05:16:30.777Z,21.53
2022-12-05T05:18:58.103Z,20.07
2022-12-05T05:21:30.882Z,21.30
2022-12-05T05:23:58.123Z,21.57
2022-12-05T05:26:27.252Z,22.13
2022-12-05T05:28:54.594Z,21.37
2022-12-05T05:31:21.933Z,22.27
2022-12-05T05:33:51.797Z,22.63
2022-12-05T05:36:20.947Z,21.63
2022-12-05T05:38:53.817Z,21.43
2022-12-05T05:41:25.387Z,22.33
2022-12-05T05:43:56.036Z,21.63
2022-12-05T05:46:29.528Z,22.50
2022-12-05T05:48:58.909Z,21.03
2022-12-05T05:51:30.373Z,20.40
2022-12-05T05:54:00.294Z,20.00
2022-12-05T05:56:33.298Z,20.03
2022-12-05T05:59:03.897Z,19.90
2022-12-05T06:01:33.822Z,20.97
2022-12-05T06:04:02.978Z,18.23
2022-12-05T06:06:31.093Z,18.33
2022-12-05T06:09:00.987Z,17.37
2022-12-05T06:11:30.955Z,16.17
2022-12-05T06:14:02.176Z,18.10
2022-12-05T06:16:32.330Z,15.90
2022-12-05T06:19:02.343Z,15.43
2022-12-05T06:21:30.327Z,15.53
2022-12-05T06:23:57.539Z,15.83
2022-12-05T06:26:24.601Z,15.83
2022-12-05T06:28:54.671Z,15.03
2022-12-05T06:31:27.182Z,16.90
2022-12-05T06:34:00.199Z,16.80
2022-12-05T06:36:30.865Z,17.20
2022-12-05T06:38:58.393Z,17.33
2022-12-05T06:41:28.563Z,14.83
2022-12-05T06:44:01.957Z,15.77
2022-12-05T06:46:32.597Z,15.07
2022-12-05T06:48:59.691Z,14.17
2022-12-05T06:51:29.733Z,14.43
2022-12-05T06:53:58.446Z,15.07
2022-12-05T06:56:29.349Z,14.57
2022-12-05T06:58:59.384Z,14.27
2022-12-05T07:01:42.289Z,14.83
2022-12-05T07:04:25.876Z,15.17
2022-12-05T07:06:56.097Z,14.67
2022-12-05T07:09:49.461Z,14.57
2022-12-05T07:12:19.426Z,15.57
2022-12-05T07:14:49.628Z,16.23
2022-12-05T07:17:20.997Z,16.40
2022-12-05T07:19:52.929Z,16.40
2022-12-05T07:22:22.605Z,15.97
2022-12-05T07:24:53.517Z,15.70
2022-12-05T07:27:26.908Z,16.80
2022-12-05T07:29:58.052Z,16.97
2022-12-05T07:32:25.264Z,17.67
2022-12-05T07:34:55.850Z,14.67
2022-12-05T07:37:25.955Z,16.03
2022-12-05T07:39:56.295Z,16.20
2022-12-05T07:42:26.561Z,15.23
2022-12-05T07:44:55.555Z,16.43
2022-12-05T07:47:22.483Z,16.37
2022-12-05T07:49:50.425Z,16.17
2022-12-05T07:52:20.354Z,15.80
2022-12-05T07:54:50.423Z,16.27
2022-12-05T07:57:23.439Z,14.37
2022-12-05T07:59:50.292Z,14.07
2022-12-05T08:02:20.851Z,15.57
2022-12-05T08:04:47.832Z,15.47
2022-12-05T08:07:14.766Z,14.83
2022-12-05T08:09:42.742Z,16.20
2022-12-05T08:12:10.697Z,14.93
2022-12-05T08:14:39.703Z,16.13
2022-12-05T08:17:09.778Z,14.30
2022-12-05T08:19:36.866Z,15.70
2022-12-05T08:22:04.274Z,14.80
2022-12-05T08:24:31.305Z,14.60
2022-12-05T08:27:05.557Z,14.97
2022-12-05T08:29:33.434Z,15.53
2022-12-05T08:32:04.196Z,14.50
2022-12-05T08:34:32.268Z,14.17
2022-12-05T08:36:59.142Z,16.17
2022-12-05T08:39:27.188Z,15.03
2022-12-05T08:41:55.116Z,14.03
2022-12-05T08:44:25.193Z,12.17
2022-12-05T08:46:52.134Z,14.17
2022-12-05T08:49:21.164Z,14.07
2022-12-05T08:51:49.160Z,12.10
2022-12-05T08:54:19.161Z,13.13
2022-12-05T08:56:52.149Z,13.03
2022-12-05T08:59:21.205Z,13.13
2022-12-05T09:01:51.471Z,14.10
2022-12-05T09:04:21.884Z,13.70
2022-12-05T09:06:48.878Z,12.27
2022-12-05T09:09:16.858Z,13.73
2022-12-05T09:11:49.139Z,13.40
2022-12-05T09:14:19.296Z,13.07
2022-12-05T09:16:48.436Z,12.60
2022-12-05T09:19:21.028Z,13.47
2022-12-05T09:21:48.138Z,12.63
2022-12-05T09:24:17.254Z,13.20
2022-12-05T09:26:46.005Z,13.23
2022-12-05T09:29:17.777Z,13.20
2022-12-05T09:31:48.771Z,13.03
2022-12-05T09:34:18.372Z,11.67
2022-12-05T09:37:01.372Z,13.60
2022-12-05T09:39:37.733Z,13.57
2022-12-05T09:42:48.072Z,12.90
2022-12-05T09:45:38.772Z,12.67
2022-12-05T09:48:23.570Z,13.80
2022-12-05T09:51:03.696Z,13.00
2022-12-05T09:53:38.883Z,13.87
2022-12-05T09:56:20.969Z,13.87
2022-12-05T09:58:50.560Z,13.47
2022-12-05T10:01:26.644Z,13.60
2022-12-05T10:04:17.792Z,14.17
2022-12-05T10:07:22.348Z,13.60
2022-12-05T10:10:07.699Z,13.83
2022-12-05T10:13:06.750Z,15.07
2022-12-05T10:15:45.679Z,15.00
2022-12-05T10:18:40.945Z,15.33
2022-12-05T10:21:19.698Z,16.20
2022-12-05T10:24:03.109Z,14.40
2022-12-05T10:26:40.945Z,13.70
2022-12-05T10:29:57.337Z,13.93
2022-12-05T10:32:56.722Z,13.93
2022-12-05T10:35:40.543Z,15.03
2022-12-05T10:38:28.895Z,14.57
2022-12-05T10:41:05.472Z,15.47
2022-12-05T10:43:37.555Z,14.67
2022-12-05T10:46:09.786Z,14.07
2022-12-05T10:48:42.866Z,15.40
2022-12-05T10:51:17.945Z,13.93
2022-12-05T10:53:51.249Z,14.77
2022-12-05T10:56:43.790Z,13.90
2022-12-05T10:59:47.362Z,13.60
2022-12-05T11:02:38.189Z,14.17
2022-12-05T11:05:08.601Z,13.00
2022-12-05T11:07:51.165Z,13.53
2022-12-05T11:10:26.914Z,13.90
2022-12-05T11:12:58.239Z,13.47
2022-12-05T11:15:28.776Z,13.87
2022-12-05T11:17:57.707Z,13.97
2022-12-05T11:20:36.837Z,13.50
2022-12-05T11:23:21.923Z,13.50
2022-12-05T11:25:51.309Z,13.40
2022-12-05T11:28:22.036Z,12.67
2022-12-05T11:31:27.017Z,13.30
2022-12-05T11:34:12.726Z,13.50
2022-12-05T11:36:50.802Z,14.27
2022-12-05T11:39:17.685Z,13.43
2022-12-05T11:42:03.471Z,14.13
2022-12-05T11:45:08.866Z,14.13
2022-12-05T11:48:18.213Z,14.37
2022-12-05T11:51:09.059Z,14.40
2022-12-05T11:53:36.006Z,14.57
2022-12-05T11:56:47.528Z,12.80
2022-12-05T11:59:52.081Z,11.87
2022-12-05T12:02:41.031Z,11.10
2022-12-05T12:05:26.227Z,11.57
2022-12-05T12:08:23.012Z,11.97
2022-12-05T12:11:26.914Z,11.53
2022-12-05T12:14:13.398Z,11.73
2022-12-05T12:17:16.543Z,12.63
2022-12-05T12:20:20.695Z,12.67
2022-12-05T12:23:09.419Z,12.33
2022-12-05T12:25:57.777Z,12.03
2022-12-05T12:28:47.109Z,10.60
2022-12-05T12:31:33.668Z,11.63
2022-12-05T12:34:25.973Z,10.10
2022-12-05T12:37:05.635Z,11.73
2022-12-05T12:39:32.650Z,11.17
2022-12-05T12:42:13.589Z,10.63
2022-12-05T12:45:26.742Z,10.77
2022-12-05T12:48:01.016Z,10.80
2022-12-05T12:50:33.104Z,10.27
2022-12-05T12:53:30.953Z,10.03
2022-12-05T12:56:23.268Z,10.60
2022-12-05T12:59:37.767Z,11.03
2022-12-05T13:02:13.374Z,11.00
2022-12-05T13:04:58.591Z,9.63
2022-12-05T13:07:45.785Z,10.50
2022-12-05T13:10:23.988Z,10.43
2022-12-05T13:12:55.435Z,10.73
2022-12-05T13:15:42.303Z,10.33
2022-12-05T13:18:16.977Z,11.00
2022-12-05T13:20:49.407Z,9.47
2022-12-05T13:23:20.100Z,9.47
2022-12-05T13:25:52.651Z,9.37
2022-12-05T13:28:55.976Z,9.83
2022-12-05T13:31:44.876Z,10.43
2022-12-05T13:34:27.447Z,10.87
2022-12-05T13:37:13.252Z,10.80
2022-12-05T13:39:59.315Z,10.97
2022-12-05T13:42:30.478Z,9.90
2022-12-05T13:45:05.277Z,10.23
2022-12-05T13:47:37.159Z,10.00
2022-12-05T13:50:15.461Z,9.83
2022-12-05T13:52:52.582Z,9.90
2022-12-05T13:55:35.898Z,9.03
2022-12-05T13:58:24.489Z,9.10
2022-12-05T14:01:26.799Z,9.20
2022-12-05T14:04:02.370Z,9.37
2022-12-05T14:06:38.193Z,8.03
2022-12-05T14:09:20.841Z,8.80
2022-12-05T14:12:15.842Z,8.27
2022-12-05T14:14:58.194Z,8.83
2022-12-05T14:17:30.802Z,8.43
2022-12-05T14:20:28.657Z,7.27
2022-12-05T14:23:31.940Z,7.33
2022-12-05T14:26:08.740Z,8.67
2022-12-05T14:28:44.828Z,8.33
2022-12-05T14:31:39.604Z,7.83
2022-12-05T14:34:27.656Z,7.93
2022-12-05T14:37:18.825Z,8.23
2022-12-05T14:39:53.027Z,8.17
2022-12-05T14:42:42.185Z,8.10
2022-12-05T14:45:40.669Z,8.20
2022-12-05T14:48:29.235Z,7.70
2022-12-05T14:51:00.885Z,8.27
2022-12-05T14:53:40.772Z,7.53
2022-12-05T14:56:24.003Z,6.77
2022-12-05T14:59:04.666Z,5.53
2022-12-05T15:01:48.846Z,6.57
2022-12-05T15:04:42.419Z,5.30
2022-12-05T15:07:23.129Z,5.63
2022-12-05T15:10:23.243Z,5.67
2022-12-05T15:13:00.895Z,5.23
2022-12-05T15:15:40.266Z,5.03
2022-12-05T15:18:25.166Z,5.50
2022-12-05T15:21:11.979Z,5.50
2022-12-05T15:23:57.755Z,5.57
2022-12-05T15:26:49.452Z,5.00
2022-12-05T15:29:32.792Z,5.13
2022-12-05T15:32:06.464Z,5.23
2022-12-05T15:34:47.416Z,5.37
2022-12-05T15:37:25.390Z,4.93
2022-12-05T15:40:01.779Z,4.83
2022-12-05T15:42:34.779Z,4.40
2022-12-05T15:45:14.623Z,5.07
2022-12-05T15:47:51.002Z,4.80
2022-12-05T15:50:31.525Z,4.10
2022-12-05T15:53:06.463Z,4.50
2022-12-05T15:55:46.455Z,4.37
2022-12-05T15:58:46.615Z,5.10
2022-12-05T16:01:23.035Z,5.00
2022-12-05T16:04:29.590Z,5.63
2022-12-05T16:07:05.420Z,5.43
2022-12-05T16:09:41.374Z,5.50
2022-12-05T16:12:31.322Z,5.47
2022-12-05T16:15:03.489Z,4.90
2022-12-05T16:17:45.609Z,4.77
2022-12-05T16:20:31.053Z,4.83
2022-12-05T16:23:22.626Z,5.50
2022-12-05T16:26:17.472Z,4.97
2022-12-05T16:29:00.438Z,5.17
2022-12-05T16:31:29.084Z,5.43
2022-12-05T16:34:07.902Z,4.90
2022-12-05T16:36:46.914Z,4.87
2022-12-05T16:39:19.650Z,5.00
2022-12-05T16:41:50.618Z,5.47
2022-12-05T16:44:46.709Z,5.90
2022-12-05T16:47:25.169Z,5.50
2022-12-05T16:49:52.220Z,5.30
2022-12-05T16:52:22.253Z,4.93
2022-12-05T16:54:50.506Z,4.93
2022-12-05T16:57:18.700Z,5.10
2022-12-05T16:59:49.547Z,5.00
2022-12-05T17:02:19.124Z,4.13
2022-12-05T17:04:52.986Z,4.60
2022-12-05T17:07:20.978Z,4.10
2022-12-05T17:09:51.026Z,4.47
2022-12-05T17:12:23.873Z,4.47
2022-12-05T17:14:50.955Z,4.03
2022-12-05T17:17:19.064Z,4.00
2022-12-05T17:19:47.183Z,4.17
2022-12-05T17:22:16.086Z,4.00
2022-12-05T17:24:43.413Z,4.23
2022-12-05T17:27:12.265Z,4.27
2022-12-05T17:29:40.316Z,4.47
2022-12-05T17:32:07.401Z,4.13
2022-12-05T17:34:34.498Z,4.00
2022-12-05T17:37:03.691Z,4.20
2022-12-05T17:39:32.647Z,3.93
2022-12-05T17:42:01.613Z,3.93
2022-12-05T17:44:28.702Z,3.60
2022-12-05T17:46:57.027Z,3.40
2022-12-05T17:49:24.707Z,4.10
2022-12-05T17:54:44.785Z,4.37
2022-12-05T17:57:14.863Z,4.10
2022-12-05T17:59:42.984Z,3.70
2022-12-05T18:02:11.826Z,4.30
2022-12-05T18:04:38.829Z,3.70
2022-12-05T18:07:07.731Z,3.97
2022-12-05T18:09:37.799Z,3.73
2022-12-05T18:12:05.142Z,3.53
2022-12-05T18:14:36.119Z,2.97
2022-12-05T18:17:04.607Z,3.60
2022-12-05T18:19:31.650Z,3.20
2022-12-05T18:21:58.675Z,3.37
2022-12-05T18:24:25.657Z,4.17
2022-12-05T18:26:56.018Z,3.43
2022-12-05T18:29:26.187Z,3.67
2022-12-05T18:31:53.570Z,3.97
2022-12-05T18:34:21.599Z,3.47
2022-12-05T18:36:51.805Z,3.20
2022-12-05T18:39:22.317Z,3.73
2022-12-05T18:41:50.485Z,3.57
2022-12-05T18:44:20.479Z,4.43
2022-12-05T18:46:50.545Z,3.80
2022-12-05T18:49:17.643Z,4.03
2022-12-05T18:51:47.661Z,3.37
2022-12-05T18:54:18.211Z,4.77
2022-12-05T18:56:50.343Z,5.20
2022-12-05T18:59:19.831Z,4.63
2022-12-05T19:01:50.564Z,4.13
2022-12-05T19:04:21.657Z,4.00
2022-12-05T19:06:52.065Z,3.70
2022-12-05T19:09:21.815Z,4.20
2022-12-05T19:11:52.212Z,3.77
2022-12-05T19:14:22.816Z,3.97
2022-12-05T19:16:59.781Z,3.70
2022-12-05T19:19:28.211Z,3.70
2022-12-05T19:21:58.951Z,3.40
2022-12-05T19:24:26.964Z,3.87
2022-12-05T19:26:56.944Z,3.87
2022-12-05T19:29:23.908Z,3.57
2022-12-05T19:31:50.971Z,4.17
2022-12-05T19:34:18.054Z,5.00
2022-12-05T19:36:46.333Z,3.87
2022-12-05T19:39:23.653Z,3.70
2022-12-05T19:41:50.939Z,4.67
2022-12-05T19:44:18.286Z,4.07
2022-12-05T19:46:49.043Z,4.27
2022-12-05T19:49:19.251Z,4.70
2022-12-05T19:51:49.664Z,4.10
2022-12-05T19:54:22.191Z,5.07
2022-12-05T19:56:58.449Z,4.70
2022-12-05T19:59:28.495Z,4.30
2022-12-05T20:01:58.798Z,4.37
2022-12-05T20:04:28.861Z,4.50
2022-12-05T20:06:56.816Z,4.57
2022-12-05T20:09:24.842Z,4.93
2022-12-05T20:11:55.587Z,4.50
2022-12-05T20:14:26.141Z,5.07
2022-12-05T20:16:56.380Z,5.10
2022-12-05T20:19:23.876Z,4.23
2022-12-05T20:21:50.764Z,4.50
2022-12-05T20:24:17.593Z,4.67
2022-12-05T20:26:45.663Z,4.70
2022-12-05T20:29:12.954Z,4.57
2022-12-05T20:31:41.746Z,4.07
2022-12-05T20:34:11.940Z,3.97
2022-12-05T20:36:38.959Z,3.43
2022-12-05T20:39:13.130Z,4.10
2022-12-05T20:41:40.071Z,4.10
2022-12-05T20:44:08.610Z,4.27
2022-12-05T20:46:36.990Z,5.30
2022-12-05T20:49:04.118Z,4.50
2022-12-05T20:51:33.823Z,4.67
2022-12-05T20:54:03.102Z,4.43
2022-12-05T20:56:33.377Z,4.10
2022-12-05T20:59:03.488Z,4.53
2022-12-05T21:01:33.250Z,3.97
2022-12-05T21:04:00.868Z,3.93
2022-12-05T21:06:30.784Z,4.27
2022-12-05T21:08:58.586Z,4.10
2022-12-05T21:11:26.648Z,3.50
2022-12-05T21:13:56.406Z,3.83
2022-12-05T21:16:24.294Z,4.10
2022-12-05T21:18:52.210Z,3.53
2022-12-05T21:21:24.752Z,4.13
2022-12-05T21:24:01.039Z,3.57
2022-12-05T21:26:33.557Z,3.93
2022-12-05T21:29:01.732Z,3.80
2022-12-05T21:31:34.629Z,4.20
2022-12-05T21:34:06.030Z,3.80
2022-12-05T21:36:36.243Z,3.13
2022-12-05T21:39:05.768Z,4.27
2022-12-05T21:41:33.056Z,4.90
2022-12-05T21:44:01.555Z,4.60
2022-12-05T21:46:28.763Z,3.90
2022-12-05T21:48:55.917Z,4.40
2022-12-05T21:51:23.902Z,3.33
2022-12-05T21:53:51.612Z,3.40
2022-12-05T21:56:25.622Z,3.50
2022-12-05T21:58:52.920Z,3.47
2022-12-05T22:01:23.498Z,3.43
2022-12-05T22:03:56.165Z,3.53
2022-12-05T22:06:23.284Z,3.20
2022-12-05T22:08:50.282Z,2.80
2022-12-05T22:11:20.116Z,3.77
2022-12-05T22:13:48.950Z,3.47
2022-12-05T22:16:16.911Z,3.60
2022-12-05T22:18:44.436Z,3.50
2022-12-05T22:21:17.498Z,3.40
2022-12-05T22:23:44.419Z,4.13
2022-12-05T22:26:13.968Z,4.60
2022-12-05T22:28:41.301Z,4.10
2022-12-05T22:31:10.741Z,3.60
2022-12-05T22:33:38.049Z,4.07
2022-12-05T22:36:07.685Z,4.07
2022-12-05T22:38:37.120Z,4.43
2022-12-05T22:41:09.498Z,3.97
2022-12-05T22:43:37.891Z,3.20
2022-12-05T22:46:10.903Z,3.20
2022-12-05T22:48:38.120Z,4.80
2022-12-05T22:51:07.033Z,4.43
2022-12-05T22:53:34.629Z,4.93
2022-12-05T22:56:04.397Z,5.13
2022-12-05T22:58:31.482Z,4.87
2022-12-05T23:00:58.730Z,4.63
2022-12-05T23:03:25.874Z,3.37
2022-12-05T23:05:53.058Z,3.40
2022-12-05T23:08:20.085Z,3.27
2022-12-05T23:10:47.075Z,3.07
2022-12-05T23:13:14.078Z,3.30
2022-12-05T23:15:41.100Z,3.00
2022-12-05T23:18:08.751Z,2.90
2022-12-05T23:20:35.728Z,2.87
2022-12-05T23:23:02.765Z,2.93
2022-12-05T23:25:29.718Z,3.00
2022-12-05T23:27:56.751Z,3.60
2022-12-05T23:30:23.713Z,3.73
2022-12-05T23:32:50.763Z,3.53
2022-12-05T23:35:17.773Z,3.77
2022-12-05T23:37:44.766Z,3.47
2022-12-05T23:40:11.927Z,3.50
2022-12-05T23:42:39.087Z,3.00
2022-12-05T23:45:06.830Z,2.87
2022-12-05T23:47:33.875Z,3.37
2022-12-05T23:50:01.382Z,3.43
2022-12-05T23:52:28.670Z,3.33
2022-12-05T23:54:57.623Z,3.37
2022-12-05T23:57:24.769Z,3.10
2022-12-05T23:59:51.745Z,2.93
